Time;durP1;ratioP1;P1;durP2;ratioP2;P2;SDS_P1;SDS_P2;PMS_P1;PMS_P2;Temp;Humidity;BMP_temperature;BMP_pressure;BME280_temperature;BME280_humidity;BME280_pressure;Samples;Min_cycle;Max_cycle;Signal;HPM_P1;HPM_P2
2020/12/04 00:05:05;;;;;;;;;;;;;;;26.25;28.72;101020.28;5056798;28;609;-33
2020/12/04 00:07:30;;;;;;;;;;;;;;;26.45;28.36;101017.22;5057471;28;822;-34
2020/12/04 00:09:56;;;;;;;;;;;;;;;26.41;28.47;101027.50;5057034;28;1034;-40
2020/12/04 00:12:21;;;;;;;;;;;;;;;26.37;28.42;101021.66;5062694;28;1152;-49
2020/12/04 00:14:46;;;;;;;;;;;;;;;26.58;28.43;101030.19;5076947;28;816;-31
2020/12/04 00:17:12;;;;;;;;;;;;;;;26.60;28.15;101031.72;5076780;28;1133;-40
2020/12/04 00:19:37;;;;;;;;;;;;;;;26.55;28.58;101031.38;5076854;28;842;-48
2020/12/04 00:22:02;;;;;;;;;;;;;;;26.58;28.55;101031.03;5076777;28;1911;-33
2020/12/04 00:24:31;;;;;;;;;;;;;;;26.48;28.64;101031.22;5077011;28;816;-31
2020/12/04 00:26:56;;;;;;;;;;;;;;;26.55;28.66;101028.69;5076409;28;979;-33
2020/12/04 00:29:22;;;;;;;;;;;;;;;26.51;28.62;101033.56;5076902;28;759;-44
2020/12/04 00:31:47;;;;;;;;;;;;;;;25.55;29.80;101032.19;5077091;28;855;-34
2020/12/04 00:34:13;;;;;;;;;;;;;;;25.29;30.15;101030.44;5076724;28;827;-37
2020/12/04 00:36:38;;;;;;;;;;;;;;;25.06;30.75;101025.66;5076671;28;787;-47
2020/12/04 00:39:03;;;;;;;;;;;;;;;24.77;31.35;101028.69;5076993;28;759;-38
2020/12/04 00:41:29;;;;;;;;;;;;;;;25.56;30.02;101033.88;5061244;28;1910;-34
2020/12/04 00:43:54;;;;;;;;;;;;;;;26.04;28.86;101019.78;5056400;28;826;-34
2020/12/04 00:46:19;;;;;;;;;;;;;;;26.16;28.49;101020.28;5056513;28;1455;-34
2020/12/04 00:48:45;;;;;;;;;;;;;;;26.26;28.52;101014.72;5057012;28;768;-38
2020/12/04 00:51:10;;;;;;;;;;;;;;;26.27;28.47;101020.94;5056369;28;811;-35
2020/12/04 00:53:35;;;;;;;;;;;;;;;26.19;28.52;101020.97;5056598;28;825;-33
2020/12/04 00:56:01;;;;;;;;;;;;;;;26.24;28.70;101018.59;5056664;28;963;-46
2020/12/04 00:58:26;;;;;;;;;;;;;;;26.34;28.32;101018.44;5056264;28;792;-30
2020/12/04 01:00:52;;;;;;;;;;;;;;;26.25;28.51;101017.56;5056981;28;775;-36
2020/12/04 01:03:17;;;;;;;;;;;;;;;26.32;28.50;101020.44;5056708;28;1914;-44
2020/12/04 01:05:42;;;;;;;;;;;;;;;26.43;28.42;101024.66;5056145;28;822;-35
2020/12/04 01:08:07;;;;;;;;;;;;;;;26.35;28.44;101017.41;5056916;28;823;-34
2020/12/04 01:10:33;;;;;;;;;;;;;;;26.32;28.52;101017.75;5056384;28;1014;-35
2020/12/04 01:12:58;;;;;;;;;;;;;;;26.33;28.50;101027.53;5066753;28;1105;-36
2020/12/04 01:15:23;;;;;;;;;;;;;;;26.34;28.43;101021.16;5076510;28;841;-45
2020/12/04 01:17:49;;;;;;;;;;;;;;;26.45;28.37;101023.47;5076147;28;1130;-36
2020/12/04 01:20:14;;;;;;;;;;;;;;;26.36;28.55;101013.72;5076252;28;867;-35
2020/12/04 01:22:39;;;;;;;;;;;;;;;26.33;28.55;101005.97;5076494;28;1988;-31
2020/12/04 01:25:05;;;;;;;;;;;;;;;26.38;28.48;101009.84;5072386;28;1021;-31
2020/12/04 01:27:30;;;;;;;;;;;;;;;26.38;28.35;101009.84;5056119;28;776;-34
2020/12/04 01:29:55;;;;;;;;;;;;;;;26.29;28.64;101011.66;5056081;28;1434;-35
2020/12/04 01:32:20;;;;;;;;;;;;;;;26.29;28.81;101006.28;5056111;28;813;-47
2020/12/04 01:34:46;;;;;;;;;;;;;;;26.43;28.32;101009.31;5056183;28;803;-33
2020/12/04 01:37:11;;;;;;;;;;;;;;;26.40;28.46;101006.97;5056367;28;851;-35
2020/12/04 01:39:36;;;;;;;;;;;;;;;26.37;28.71;101005.47;5056248;28;764;-33
2020/12/04 01:42:02;;;;;;;;;;;;;;;26.35;28.69;101002.09;5075488;28;1910;-36
2020/12/04 01:44:27;;;;;;;;;;;;;;;26.36;28.61;101002.94;5076149;28;790;-41
2020/12/04 01:46:52;;;;;;;;;;;;;;;26.26;28.64;101012.00;5076793;28;763;-45
2020/12/04 01:49:18;;;;;;;;;;;;;;;26.41;28.46;101011.34;5079704;28;791;-41
2020/12/04 01:51:43;;;;;;;;;;;;;;;26.40;28.57;101017.75;5062119;28;868;-35
2020/12/04 01:54:08;;;;;;;;;;;;;;;26.50;28.42;101015.72;5079744;28;960;-32
2020/12/04 01:56:39;;;;;;;;;;;;;;;26.40;28.47;101004.25;5045609;28;998;-35
2020/12/04 01:59:05;;;;;;;;;;;;;;;26.39;28.57;101002.59;5060079;28;772;-33
2020/12/04 02:01:30;;;;;;;;;;;;;;;26.47;28.53;101002.56;5059691;28;1969;-42
2020/12/04 02:03:55;;;;;;;;;;;;;;;26.44;28.38;100992.13;5041593;28;799;-33
2020/12/04 02:06:31;;;;;;;;;;;;;;;26.33;28.55;100993.31;5059665;28;810;-44
2020/12/04 02:09:01;;;;;;;;;;;;;;;26.50;28.22;100993.28;5059585;28;776;-35
2020/12/04 02:11:26;;;;;;;;;;;;;;;26.37;28.44;100996.53;5056452;28;1019;-31
2020/12/04 02:13:52;;;;;;;;;;;;;;;26.26;28.57;100997.69;5061631;28;1132;-45
2020/12/04 02:16:18;;;;;;;;;;;;;;;26.46;28.45;100997.34;5061421;28;851;-34
2020/12/04 02:18:43;;;;;;;;;;;;;;;26.41;28.57;101003.25;5063444;28;1035;-45
2020/12/04 02:21:08;;;;;;;;;;;;;;;26.40;28.67;100997.03;5059164;28;1891;-36
2020/12/04 02:23:34;;;;;;;;;;;;;;;26.49;28.27;100991.63;5059636;28;796;-33
2020/12/04 02:25:59;;;;;;;;;;;;;;;26.41;28.46;100992.44;5051780;28;1011;-35
2020/12/04 02:28:37;;;;;;;;;;;;;;;26.39;28.77;100992.63;5079446;28;800;-45
2020/12/04 02:31:02;;;;;;;;;;;;;;;26.34;28.47;100986.91;5079257;28;841;-35
2020/12/04 02:33:28;;;;;;;;;;;;;;;26.43;28.44;100989.59;5078827;28;798;-36
2020/12/04 02:35:53;;;;;;;;;;;;;;;26.50;28.56;100991.44;5078960;28;748;-44
2020/12/04 02:38:19;;;;;;;;;;;;;;;26.36;28.80;100997.56;5079190;28;728;-32
2020/12/04 02:40:45;;;;;;;;;;;;;;;26.26;28.69;100995.84;5069365;28;1014;-36
2020/12/04 02:43:10;;;;;;;;;;;;;;;26.49;28.63;100987.03;5059012;28;1901;-36
2020/12/04 02:45:35;;;;;;;;;;;;;;;26.39;28.75;100997.19;5058898;28;748;-36
2020/12/04 02:48:01;;;;;;;;;;;;;;;26.22;28.78;100996.34;5058336;28;839;-33
2020/12/04 02:50:26;;;;;;;;;;;;;;;26.46;28.64;100987.38;5058676;28;827;-36
2020/12/04 02:52:52;;;;;;;;;;;;;;;26.43;28.59;100987.75;5058952;28;768;-33
2020/12/04 02:55:17;;;;;;;;;;;;;;;26.39;28.46;100976.44;5058264;28;955;-35
2020/12/04 02:57:42;;;;;;;;;;;;;;;26.56;28.52;100976.41;5058541;28;875;-35
2020/12/04 03:00:08;;;;;;;;;;;;;;;26.51;28.37;100982.31;5057669;28;784;-34
2020/12/04 03:02:33;;;;;;;;;;;;;;;26.32;28.71;100978.13;5058038;28;1910;-32
2020/12/04 03:04:58;;;;;;;;;;;;;;;26.56;28.55;100978.28;5058287;28;855;-34
2020/12/04 03:07:24;;;;;;;;;;;;;;;26.43;28.68;100976.09;5058600;28;802;-46
2020/12/04 03:09:49;;;;;;;;;;;;;;;26.41;28.51;100977.13;5059471;28;952;-33
2020/12/04 03:12:14;;;;;;;;;;;;;;;26.52;28.49;100978.63;5078210;28;1080;-34
2020/12/04 03:14:39;;;;;;;;;;;;;;;26.44;28.58;100983.19;5078377;28;775;-33
2020/12/04 03:17:05;;;;;;;;;;;;;;;26.53;28.09;100983.00;5077996;28;1225;-35
2020/12/04 03:19:30;;;;;;;;;;;;;;;26.58;28.36;100981.63;5078091;28;775;-46
2020/12/04 03:21:55;;;;;;;;;;;;;;;26.39;28.64;100981.84;5078526;28;1980;-39
2020/12/04 03:24:21;;;;;;;;;;;;;;;26.44;28.62;100983.19;5078204;28;863;-33
2020/12/04 03:26:49;;;;;;;;;;;;;;;26.62;28.30;100975.72;5059897;28;1017;-35
2020/12/04 03:29:14;;;;;;;;;;;;;;;26.48;28.34;100976.41;5058165;28;756;-32
2020/12/04 03:31:39;;;;;;;;;;;;;;;26.36;28.64;100984.88;5057937;28;759;-33
2020/12/04 03:34:05;;;;;;;;;;;;;;;26.49;28.68;100976.25;5057587;28;804;-36
2020/12/04 03:36:30;;;;;;;;;;;;;;;26.45;28.58;100974.94;5058064;28;763;-33
2020/12/04 03:38:55;;;;;;;;;;;;;;;26.36;28.90;100975.97;5057587;28;874;-34
2020/12/04 03:41:21;;;;;;;;;;;;;;;26.38;28.63;100969.38;5057319;28;1978;-36
2020/12/04 03:43:46;;;;;;;;;;;;;;;26.41;28.72;100968.19;5057843;28;858;-36
2020/12/04 03:46:11;;;;;;;;;;;;;;;26.36;28.95;100984.06;5057650;28;772;-35
2020/12/04 03:48:37;;;;;;;;;;;;;;;26.36;28.71;100979.50;5057441;28;823;-32
2020/12/04 03:51:02;;;;;;;;;;;;;;;26.33;28.81;100970.91;5057768;28;792;-35
2020/12/04 03:53:27;;;;;;;;;;;;;;;26.49;28.67;100975.44;5057377;28;772;-41
2020/12/04 03:55:53;;;;;;;;;;;;;;;26.39;28.60;100973.75;5067309;28;959;-45
2020/12/04 03:58:18;;;;;;;;;;;;;;;26.29;28.68;100975.78;5077609;28;772;-44
2020/12/04 04:00:43;;;;;;;;;;;;;;;26.44;28.72;100972.41;5077299;28;836;-36
2020/12/04 04:03:09;;;;;;;;;;;;;;;26.44;28.62;100970.56;5077076;28;1976;-34
2020/12/04 04:05:34;;;;;;;;;;;;;;;26.40;28.84;100964.66;5077439;28;814;-33
2020/12/04 04:08:00;;;;;;;;;;;;;;;26.40;28.66;100971.91;5077201;28;871;-31
2020/12/04 04:10:25;;;;;;;;;;;;;;;26.40;28.93;100971.91;5076503;28;955;-38
2020/12/04 04:12:50;;;;;;;;;;;;;;;25.30;30.94;100977.44;5077290;28;1124;-36
2020/12/04 04:15:15;;;;;;;;;;;;;;;24.64;32.56;100972.66;5076977;28;756;-34
2020/12/04 04:17:41;;;;;;;;;;;;;;;24.51;32.98;100963.16;5076874;28;1272;-31
2020/12/04 04:20:06;;;;;;;;;;;;;;;24.36;33.16;100967.47;5077212;28;755;-36
2020/12/04 04:22:31;;;;;;;;;;;;;;;24.02;33.53;100971.72;5077281;28;1989;-32
2020/12/04 04:24:56;;;;;;;;;;;;;;;23.93;33.81;100970.81;5076457;28;962;-34
2020/12/04 04:27:22;;;;;;;;;;;;;;;23.45;35.15;100971.06;5077052;28;806;-32
2020/12/04 04:29:47;;;;;;;;;;;;;;;23.23;35.49;100965.97;5076987;28;875;-32
2020/12/04 04:32:12;;;;;;;;;;;;;;;23.32;35.22;100969.56;5076452;28;768;-34
2020/12/04 04:34:38;;;;;;;;;;;;;;;23.35;35.41;100960.38;5077012;28;803;-30
2020/12/04 04:37:03;;;;;;;;;;;;;;;23.15;35.86;100960.50;5077303;28;803;-32
2020/12/04 04:39:28;;;;;;;;;;;;;;;23.17;35.91;100952.31;5076907;28;748;-31
2020/12/04 04:41:57;;;;;;;;;;;;;;;23.07;35.71;100957.75;5057622;28;1902;-33
2020/12/04 04:44:22;;;;;;;;;;;;;;;23.07;35.77;100952.38;5056789;28;752;-32
2020/12/04 04:47:08;;;;;;;;;;;;;;;23.00;36.12;100950.28;5056558;28;756;-33
2020/12/04 04:49:36;;;;;;;;;;;;;;;22.86;36.38;100948.09;5045901;28;1556;-29
2020/12/04 04:52:02;;;;;;;;;;;;;;;22.83;36.25;100951.09;5056880;28;756;-38
2020/12/04 04:54:27;;;;;;;;;;;;;;;22.67;36.84;100949.06;5056273;28;784;-33
2020/12/04 04:56:53;;;;;;;;;;;;;;;22.89;36.64;100946.97;5055824;28;1063;-30
2020/12/04 04:59:19;;;;;;;;;;;;;;;22.89;36.45;100952.34;5056750;28;764;-34
2020/12/04 05:01:46;;;;;;;;;;;;;;;22.79;36.79;100958.56;5056185;28;1987;-36
2020/12/04 05:04:11;;;;;;;;;;;;;;;23.09;36.79;100945.00;5055884;28;795;-37
2020/12/04 05:06:36;;;;;;;;;;;;;;;23.64;35.27;100951.28;5056640;28;879;-37
2020/12/04 05:09:05;;;;;;;;;;;;;;;23.87;34.76;100950.81;5056117;28;756;-41
2020/12/04 05:11:30;;;;;;;;;;;;;;;23.86;34.84;100951.78;5056366;28;944;-38
2020/12/04 05:14:15;;;;;;;;;;;;;;;23.92;34.38;100953.84;5075202;28;1084;-43
2020/12/04 05:16:41;;;;;;;;;;;;;;;24.66;33.09;100949.94;5076155;28;923;-36
2020/12/04 05:19:06;;;;;;;;;;;;;;;24.69;32.81;100949.63;5076612;28;1169;-31
2020/12/04 05:21:32;;;;;;;;;;;;;;;24.64;33.00;100951.13;5076518;28;1983;-43
2020/12/04 05:23:59;;;;;;;;;;;;;;;24.81;32.80;100947.50;5079954;28;776;-41
2020/12/04 05:26:30;;;;;;;;;;;;;;;24.62;32.87;100962.06;5065587;28;982;-34
2020/12/04 05:28:56;;;;;;;;;;;;;;;24.02;34.17;100959.16;5060548;28;811;-35
2020/12/04 05:31:22;;;;;;;;;;;;;;;24.29;33.85;100968.06;5059845;28;783;-39
2020/12/04 05:33:47;;;;;;;;;;;;;;;24.49;33.36;100967.84;5042186;28;1339;-35
2020/12/04 05:36:28;;;;;;;;;;;;;;;24.60;33.11;100972.13;5060371;28;826;-41
2020/12/04 05:38:53;;;;;;;;;;;;;;;25.04;32.28;100965.75;5059834;28;803;-35
2020/12/04 05:41:18;;;;;;;;;;;;;;;24.69;32.78;100955.00;5060113;28;1910;-34
2020/12/04 05:43:44;;;;;;;;;;;;;;;24.68;32.84;100953.31;5060052;28;847;-35
2020/12/04 05:46:17;;;;;;;;;;;;;;;25.07;32.12;100959.22;5059666;28;779;-33
2020/12/04 05:48:42;;;;;;;;;;;;;;;24.19;30.79;100965.50;5059735;28;843;-36
2020/12/04 05:51:07;;;;;;;;;;;;;;;24.14;31.09;100961.56;5059709;28;748;-35
2020/12/04 05:53:32;;;;;;;;;;;;;;;24.86;31.49;100962.31;5059497;28;743;-34
2020/12/04 05:55:58;;;;;;;;;;;;;;;24.87;32.31;100961.31;5041592;28;948;-35
2020/12/04 05:58:23;;;;;;;;;;;;;;;25.00;32.08;100971.63;5059754;28;787;-34
2020/12/04 06:00:48;;;;;;;;;;;;;;;25.22;31.75;100974.72;5041721;28;724;-40
2020/12/04 06:03:14;;;;;;;;;;;;;;;25.10;32.00;100974.19;5041625;28;1902;-36
2020/12/04 06:05:39;;;;;;;;;;;;;;;25.19;31.95;100979.41;5059579;28;951;-32
2020/12/04 06:08:05;;;;;;;;;;;;;;;25.21;31.82;100975.75;5059409;28;843;-33
2020/12/04 06:10:30;;;;;;;;;;;;;;;25.16;31.99;100989.66;5059465;28;936;-38
2020/12/04 06:12:56;;;;;;;;;;;;;;;25.33;31.96;100990.56;5070003;28;1120;-34
2020/12/04 06:15:25;;;;;;;;;;;;;;;25.27;31.84;100985.84;5079136;28;764;-33
2020/12/04 06:17:50;;;;;;;;;;;;;;;25.24;31.93;100986.19;5079434;28;1099;-35
2020/12/04 06:20:19;;;;;;;;;;;;;;;25.41;31.84;100997.81;5079323;28;736;-36
2020/12/04 06:23:03;;;;;;;;;;;;;;;25.19;31.88;101005.53;5078954;28;1972;-33
2020/12/04 06:25:28;;;;;;;;;;;;;;;25.12;31.54;101002.63;5072050;28;1159;-40
2020/12/04 06:27:53;;;;;;;;;;;;;;;26.70;29.51;101007.22;5041094;28;1189;-34
2020/12/04 06:30:19;;;;;;;;;;;;;;;25.56;31.53;101009.63;5058939;28;771;-34
2020/12/04 06:32:45;;;;;;;;;;;;;;;25.75;31.46;101012.19;5059443;28;831;-34
2020/12/04 06:35:11;;;;;;;;;;;;;;;26.69;29.77;101012.78;5058986;28;760;-35
2020/12/04 06:37:40;;;;;;;;;;;;;;;26.98;29.28;101022.97;5058754;28;751;-36
2020/12/04 06:40:26;;;;;;;;;;;;;;;27.20;29.11;101017.84;5058915;28;944;-34
2020/12/04 06:42:52;;;;;;;;;;;;;;;27.42;28.71;101015.34;5058681;28;1898;-35
2020/12/04 06:45:18;;;;;;;;;;;;;;;27.25;28.48;101017.28;5058650;28;850;-34
2020/12/04 06:47:43;;;;;;;;;;;;;;;26.04;30.44;101019.78;5041433;28;803;-40
2020/12/04 06:50:10;;;;;;;;;;;;;;;26.35;30.69;101018.28;5058730;28;745;-34
2020/12/04 06:52:35;;;;;;;;;;;;;;;27.24;29.05;101018.31;5058579;28;780;-36
2020/12/04 06:55:01;;;;;;;;;;;;;;;27.59;28.33;101015.25;5058486;28;978;-34
2020/12/04 06:57:26;;;;;;;;;;;;;;;27.72;28.42;101009.25;5058130;28;570;-38
2020/12/04 06:59:51;;;;;;;;;;;;;;;27.86;27.86;101010.34;5058337;28;788;-42
2020/12/04 07:02:17;;;;;;;;;;;;;;;27.97;27.62;101006.34;5058511;28;1906;-39
2020/12/04 07:04:46;;;;;;;;;;;;;;;26.36;30.03;101011.84;5058403;28;776;-36
2020/12/04 07:07:15;;;;;;;;;;;;;;;26.31;30.47;101008.78;5058241;28;811;-42
2020/12/04 07:09:41;;;;;;;;;;;;;;;27.37;28.62;101009.63;5058221;28;990;-34
2020/12/04 07:12:07;;;;;;;;;;;;;;;27.68;28.25;101014.19;5061801;28;1072;-37
2020/12/04 07:14:32;;;;;;;;;;;;;;;27.85;27.66;101017.59;5076679;28;858;-34
2020/12/04 07:16:58;;;;;;;;;;;;;;;27.95;27.87;101011.09;5077594;28;860;-39
2020/12/04 07:19:23;;;;;;;;;;;;;;;27.59;28.12;101007.94;5077926;28;1099;-34
2020/12/04 07:21:49;;;;;;;;;;;;;;;26.27;30.08;101012.88;5077864;28;1910;-40
2020/12/04 07:24:14;;;;;;;;;;;;;;;26.80;29.49;101012.41;5077803;28;791;-34
2020/12/04 07:26:49;;;;;;;;;;;;;;;27.65;28.31;101016.38;5061023;28;1029;-38
2020/12/04 07:29:14;;;;;;;;;;;;;;;27.88;27.82;101005.56;5057837;28;882;-39
2020/12/04 07:34:42;;;;;;;;;;;;;;;26.63;29.48;101025.09;5057477;28;597;-33
2020/12/04 07:37:08;;;;;;;;;;;;;;;26.41;29.87;101022.97;5039762;28;1211;-34
2020/12/04 07:42:36;;;;;;;;;;;;;;;27.83;27.85;101026.91;5057317;28;1905;-34
2020/12/04 07:45:01;;;;;;;;;;;;;;;27.91;27.60;101029.53;5076149;28;841;-34
2020/12/04 07:47:27;;;;;;;;;;;;;;;28.13;27.57;101023.47;5077761;28;809;-38
2020/12/04 07:49:53;;;;;;;;;;;;;;;27.55;27.80;101028.25;5077691;28;890;-41
2020/12/04 07:52:25;;;;;;;;;;;;;;;26.59;29.38;101023.78;5077381;28;759;-35
2020/12/04 07:54:58;;;;;;;;;;;;;;;27.29;28.62;101023.19;5074955;28;982;-37
2020/12/04 07:57:28;;;;;;;;;;;;;;;27.78;27.87;101022.03;5057893;28;787;-34
2020/12/04 07:59:54;;;;;;;;;;;;;;;27.98;27.50;101024.25;5039763;28;839;-35
2020/12/04 08:02:20;;;;;;;;;;;;;;;28.11;27.47;101029.06;5057554;28;1905;-38
2020/12/04 08:04:45;;;;;;;;;;;;;;;28.14;27.05;101033.25;5057146;28;803;-35
2020/12/04 08:07:11;;;;;;;;;;;;;;;27.14;28.37;101035.56;5039114;28;855;-37
2020/12/04 08:09:45;;;;;;;;;;;;;;;26.58;29.11;101032.88;5057156;28;819;-34
2020/12/04 08:12:11;;;;;;;;;;;;;;;27.49;28.48;101027.09;5070000;28;950;-33
2020/12/04 08:14:37;;;;;;;;;;;;;;;27.87;27.61;101025.53;5076218;28;826;-36
2020/12/04 08:17:04;;;;;;;;;;;;;;;28.07;27.12;101036.69;5076595;28;1312;-37
2020/12/04 08:19:31;;;;;;;;;;;;;;;27.50;27.53;101033.34;5076895;28;625;-49
2020/12/04 08:21:57;;;;;;;;;;;;;;;26.62;29.17;101028.84;5076683;28;1894;-36
2020/12/04 08:24:23;;;;;;;;;;;;;;;27.33;28.65;101030.75;5076866;28;978;-45
2020/12/04 08:27:18;;;;;;;;;;;;;;;27.91;27.71;101034.13;5058375;28;1034;-44
2020/12/04 08:29:46;;;;;;;;;;;;;;;28.08;27.07;101032.09;5043269;28;1520;-35
2020/12/04 08:32:21;;;;;;;;;;;;;;;28.17;26.84;101036.44;5056671;28;787;-34
2020/12/04 08:34:47;;;;;;;;;;;;;;;28.19;26.70;101023.56;5061408;28;888;-37
2020/12/04 08:37:12;;;;;;;;;;;;;;;26.97;28.60;101026.69;5087196;28;1003;-34
2020/12/04 08:39:40;;;;;;;;;;;;;;;26.63;28.91;101033.22;5096288;28;550;-36
2020/12/04 08:42:34;;;;;;;;;;;;;;;26.31;29.41;101027.69;5056181;28;1914;-34
2020/12/04 08:44:59;;;;;;;;;;;;;;;26.22;29.60;101026.88;5055576;28;800;-33
2020/12/04 08:47:25;;;;;;;;;;;;;;;26.24;29.35;101021.28;5056007;28;744;-34
2020/12/04 08:49:51;;;;;;;;;;;;;;;26.15;29.85;101018.63;5072722;28;837;-33
2020/12/04 08:52:32;;;;;;;;;;;;;;;26.19;29.54;101016.41;5076098;28;819;-36
2020/12/04 08:54:57;;;;;;;;;;;;;;;26.51;29.04;101009.28;5073240;28;955;-40
2020/12/04 08:57:26;;;;;;;;;;;;;;;26.15;29.66;101015.06;5055218;28;867;-39
2020/12/04 08:59:52;;;;;;;;;;;;;;;26.03;29.67;101006.47;5055956;28;748;-36
2020/12/04 09:02:17;;;;;;;;;;;;;;;26.27;29.23;101015.56;5056061;28;1898;-38
2020/12/04 09:04:42;;;;;;;;;;;;;;;25.83;29.95;101006.81;5055975;28;764;-41
2020/12/04 09:07:07;;;;;;;;;;;;;;;25.86;29.91;101005.66;5055247;28;965;-34
2020/12/04 09:09:33;;;;;;;;;;;;;;;26.35;29.20;101003.94;5056123;28;776;-33
2020/12/04 09:11:58;;;;;;;;;;;;;;;26.00;29.74;100994.19;5058193;28;991;-34
2020/12/04 09:14:23;;;;;;;;;;;;;;;26.00;29.99;100991.50;5075432;28;855;-34
2020/12/04 09:16:50;;;;;;;;;;;;;;;26.25;29.39;100990.63;5075982;28;811;-36
2020/12/04 09:19:15;;;;;;;;;;;;;;;25.92;29.88;100986.94;5075416;28;1171;-33
2020/12/04 09:21:40;;;;;;;;;;;;;;;25.88;29.93;100980.22;5075566;28;1973;-34
2020/12/04 09:24:06;;;;;;;;;;;;;;;26.34;29.22;100976.13;5075864;28;799;-35
2020/12/04 09:26:31;;;;;;;;;;;;;;;26.06;29.54;100971.09;5059978;28;1014;-33
2020/12/04 09:28:56;;;;;;;;;;;;;;;25.95;29.87;100977.69;5055599;28;1028;-34
2020/12/04 09:31:21;;;;;;;;;;;;;;;26.15;29.46;100975.47;5055830;28;748;-36
2020/12/04 09:33:47;;;;;;;;;;;;;;;26.02;29.62;100981.38;5055736;28;811;-35
2020/12/04 09:36:12;;;;;;;;;;;;;;;25.95;29.87;100984.91;5064613;28;950;-36
2020/12/04 09:38:38;;;;;;;;;;;;;;;26.24;29.38;100981.66;5096071;28;838;-34
2020/12/04 09:41:03;;;;;;;;;;;;;;;26.17;29.52;100968.03;5072162;28;950;-35
2020/12/04 09:43:29;;;;;;;;;;;;;;;25.70;30.20;100960.66;5055471;28;1906;-35
2020/12/04 09:45:54;;;;;;;;;;;;;;;25.73;30.28;100961.19;5058120;28;882;-37
2020/12/04 09:48:20;;;;;;;;;;;;;;;25.58;30.59;100958.28;5091804;28;867;-37
2020/12/04 09:50:45;;;;;;;;;;;;;;;25.36;31.00;100965.16;5095457;28;804;-37
2020/12/04 09:53:11;;;;;;;;;;;;;;;25.60;30.60;100971.56;5095804;28;839;-34
2020/12/04 09:55:36;;;;;;;;;;;;;;;25.64;30.50;100968.41;5078984;28;955;-40
2020/12/04 09:58:01;;;;;;;;;;;;;;;25.53;30.71;100972.25;5055228;28;756;-35
2020/12/04 10:00:27;;;;;;;;;;;;;;;25.77;30.07;100967.06;5059681;28;839;-40
2020/12/04 10:02:52;;;;;;;;;;;;;;;25.68;30.31;100963.53;5087474;28;1960;-42
2020/12/04 10:05:17;;;;;;;;;;;;;;;25.73;30.61;100968.41;5075124;28;859;-36
2020/12/04 10:07:42;;;;;;;;;;;;;;;26.00;29.99;100961.00;5075715;28;767;-39
2020/12/04 10:10:08;;;;;;;;;;;;;;;25.91;30.20;100966.38;5074205;28;966;-35
2020/12/04 10:12:33;;;;;;;;;;;;;;;25.66;30.39;100957.47;5065842;28;1104;-36
2020/12/04 10:14:58;;;;;;;;;;;;;;;25.90;30.05;100962.03;5078786;28;716;-42
2020/12/04 10:17:24;;;;;;;;;;;;;;;25.83;30.19;100957.47;5078695;28;1075;-36
2020/12/04 10:19:50;;;;;;;;;;;;;;;25.73;30.38;100963.03;5078506;28;791;-37
2020/12/04 10:22:15;;;;;;;;;;;;;;;26.04;29.78;100965.88;5078722;28;1906;-41
2020/12/04 10:24:40;;;;;;;;;;;;;;;26.06;29.72;100965.69;5078131;28;990;-35
2020/12/04 10:27:06;;;;;;;;;;;;;;;25.70;30.37;100961.50;5058162;28;799;-35
2020/12/04 10:29:31;;;;;;;;;;;;;;;25.69;30.79;100962.53;5079470;28;817;-36
2020/12/04 10:31:56;;;;;;;;;;;;;;;26.32;29.86;100947.63;5098839;28;849;-37
2020/12/04 10:34:21;;;;;;;;;;;;;;;26.15;30.36;100948.50;5098576;28;834;-35
2020/12/04 10:36:47;;;;;;;;;;;;;;;26.13;30.24;100939.75;5098521;28;871;-37
2020/12/04 10:39:12;;;;;;;;;;;;;;;26.45;29.66;100937.16;5098868;28;834;-35
2020/12/04 10:41:38;;;;;;;;;;;;;;;26.55;29.61;100928.00;5064852;28;1906;-34
2020/12/04 10:44:04;;;;;;;;;;;;;;;26.31;30.10;100919.81;5058223;28;760;-38
2020/12/04 10:46:30;;;;;;;;;;;;;;;26.32;29.81;100908.03;5058482;28;831;-45
2020/12/04 10:48:55;;;;;;;;;;;;;;;26.17;30.13;100905.19;5057379;28;764;-35
2020/12/04 10:51:21;;;;;;;;;;;;;;;26.00;30.51;100894.44;5077500;28;1335;-36
2020/12/04 10:53:46;;;;;;;;;;;;;;;26.21;29.97;100894.91;5078551;28;1697;-37
2020/12/04 10:56:12;;;;;;;;;;;;;;;26.80;29.11;100890.13;5064738;28;1014;-43
2020/12/04 10:58:37;;;;;;;;;;;;;;;26.35;29.86;100885.28;5057958;28;836;-38
2020/12/04 11:01:02;;;;;;;;;;;;;;;27.04;28.81;100885.63;5058199;28;760;-39
2020/12/04 11:05:30;;;;;;;;;;;;;;;24.28;33.91;100885.75;5057924;28;1914;-41
2020/12/04 11:06:18;;;;;;;;;;;;;;;24.21;34.40;100884.69;5040722;28;1549;-30
2020/12/04 11:08:46;;;;;;;;;;;;;;;24.15;33.39;100785.88;5065902;28;1035;-33
2020/12/04 11:11:11;;;;;;;;;;;;;;;24.75;33.47;100877.34;5064728;28;947;-33
2020/12/04 11:13:37;;;;;;;;;;;;;;;24.48;34.03;100880.13;5072656;28;1085;-34
2020/12/04 11:16:02;;;;;;;;;;;;;;;24.64;34.13;100882.00;5077842;28;909;-40
2020/12/04 11:18:27;;;;;;;;;;;;;;;26.56;29.92;100879.28;5077492;28;1284;-39
2020/12/04 11:20:53;;;;;;;;;;;;;;;25.98;30.57;100883.00;5076698;28;767;-43
2020/12/04 11:23:18;;;;;;;;;;;;;;;25.87;31.17;100880.66;5077572;28;1906;-37
2020/12/04 11:25:43;;;;;;;;;;;;;;;26.84;29.59;100888.75;5067998;28;1018;-40
2020/12/04 11:28:09;;;;;;;;;;;;;;;26.57;29.66;100877.44;5057615;28;816;-35
2020/12/04 11:30:34;;;;;;;;;;;;;;;26.47;30.00;100875.78;5057594;28;812;-35
2020/12/04 11:32:59;;;;;;;;;;;;;;;27.02;29.47;100877.72;5056884;28;969;-33
2020/12/04 11:35:24;;;;;;;;;;;;;;;26.54;29.76;100873.25;5057528;28;875;-35
2020/12/04 11:37:50;;;;;;;;;;;;;;;26.21;30.30;100866.06;5057445;28;842;-37
2020/12/04 11:40:16;;;;;;;;;;;;;;;26.99;29.47;100868.06;5057172;28;951;-39
2020/12/04 11:42:43;;;;;;;;;;;;;;;26.65;29.36;100859.34;5056960;28;1959;-41
2020/12/04 11:45:08;;;;;;;;;;;;;;;26.31;30.03;100852.38;5076903;28;775;-37
2020/12/04 11:47:37;;;;;;;;;;;;;;;26.90;29.63;100850.25;5077100;28;869;-35
2020/12/04 11:50:03;;;;;;;;;;;;;;;27.17;28.59;100856.16;5076757;28;842;-41
2020/12/04 11:52:28;;;;;;;;;;;;;;;26.51;29.83;100854.69;5077030;28;780;-35
2020/12/04 11:54:53;;;;;;;;;;;;;;;26.40;30.09;100845.97;5074582;28;1010;-44
2020/12/04 11:57:19;;;;;;;;;;;;;;;27.23;28.62;100844.63;5063534;28;847;-37
2020/12/04 11:59:44;;;;;;;;;;;;;;;26.35;29.54;100840.28;5076451;28;808;-37
2020/12/04 12:02:09;;;;;;;;;;;;;;;26.21;30.33;100849.91;5076834;28;1902;-35
2020/12/04 12:04:35;;;;;;;;;;;;;;;27.03;29.20;100849.69;5076250;28;960;-37
2020/12/04 12:07:00;;;;;;;;;;;;;;;26.97;28.83;100851.22;5076469;28;807;-35
2020/12/04 12:09:25;;;;;;;;;;;;;;;26.64;29.13;100851.44;5076950;28;850;-38
2020/12/04 12:11:51;;;;;;;;;;;;;;;26.73;29.32;100849.50;5059247;28;1042;-32
2020/12/04 12:14:16;;;;;;;;;;;;;;;26.66;29.90;100852.06;5076259;28;799;-34
2020/12/04 12:16:45;;;;;;;;;;;;;;;26.53;29.60;100856.19;5076860;28;779;-33
2020/12/04 12:19:11;;;;;;;;;;;;;;;26.26;30.21;100860.16;5075507;28;1258;-34
2020/12/04 12:21:36;;;;;;;;;;;;;;;26.90;29.46;100861.03;5076422;28;1911;-37
2020/12/04 12:24:02;;;;;;;;;;;;;;;26.59;29.62;100860.03;5076658;28;832;-41
2020/12/04 12:26:27;;;;;;;;;;;;;;;26.31;30.15;100851.56;5071841;28;1025;-34
2020/12/04 12:28:52;;;;;;;;;;;;;;;26.97;29.50;100864.72;5076757;28;835;-33
2020/12/04 12:31:18;;;;;;;;;;;;;;;26.84;29.30;100862.59;5076332;28;817;-35
2020/12/04 12:33:48;;;;;;;;;;;;;;;26.35;30.09;100859.16;5076076;28;818;-34
2020/12/04 12:36:13;;;;;;;;;;;;;;;26.50;29.98;100861.94;5076705;28;809;-46
2020/12/04 12:38:38;;;;;;;;;;;;;;;26.78;29.84;100853.38;5076737;28;812;-33
2020/12/04 12:41:03;;;;;;;;;;;;;;;26.97;29.06;100866.56;5063953;28;1014;-42
2020/12/04 12:43:29;;;;;;;;;;;;;;;26.89;29.48;100868.28;5056390;28;1897;-33
2020/12/04 12:45:54;;;;;;;;;;;;;;;27.08;29.39;100874.28;5056373;28;752;-34
2020/12/04 12:48:19;;;;;;;;;;;;;;;26.87;29.37;100870.34;5056046;28;752;-38
2020/12/04 12:50:45;;;;;;;;;;;;;;;26.53;29.86;100869.69;5056274;28;1008;-44
2020/12/04 12:53:10;;;;;;;;;;;;;;;26.76;29.85;100868.88;5056134;28;769;-42
2020/12/04 12:55:35;;;;;;;;;;;;;;;26.76;29.86;100874.28;5061413;28;884;-43
2020/12/04 12:58:00;;;;;;;;;;;;;;;26.88;29.38;100869.31;5075381;28;836;-34